createdAt,value
2022-11-22T00:01:35.925Z,100256.34
2022-11-22T00:04:03.992Z,100248.66
2022-11-22T00:06:32.846Z,100263.59
2022-11-22T00:09:01.908Z,100260.28
2022-11-22T00:11:31.877Z,100270.25
2022-11-22T00:14:01.050Z,100278.72
2022-11-22T00:16:30.382Z,100280.59
2022-11-22T00:19:02.049Z,100278.25
2022-11-22T00:21:32.342Z,100279.09
2022-11-22T00:24:00.871Z,100278.09
2022-11-22T00:26:30.686Z,100278.47
2022-11-22T00:28:59.435Z,100275.13
2022-11-22T00:31:27.791Z,100279.50
2022-11-22T00:33:56.856Z,100278.47
2022-11-22T00:36:25.858Z,100270.97
2022-11-22T00:38:55.055Z,100279.25
2022-11-22T00:41:23.889Z,100284.25
2022-11-22T00:43:52.945Z,100280.91
2022-11-22T00:46:20.889Z,100274.28
2022-11-22T00:48:50.665Z,100267.25
2022-11-22T00:51:19.924Z,100270.97
2022-11-22T00:53:50.262Z,100273.50
2022-11-22T00:56:19.276Z,100273.25
2022-11-22T00:58:47.882Z,100264.53
2022-11-22T01:01:17.333Z,100267.06
2022-11-22T01:03:46.109Z,100274.09
2022-11-22T01:06:15.162Z,100269.53
2022-11-22T01:08:43.982Z,100268.31
2022-11-22T01:11:16.394Z,100269.38
2022-11-22T01:13:45.666Z,100262.53
2022-11-22T01:16:16.147Z,100256.88
2022-11-22T01:18:46.122Z,100258.16
2022-11-22T01:21:15.149Z,100261.06
2022-11-22T01:23:44.718Z,100251.75
2022-11-22T01:26:14.197Z,100243.25
2022-11-22T01:28:43.883Z,100251.34
2022-11-22T01:31:11.983Z,100244.91
2022-11-22T01:33:43.861Z,100248.66
2022-11-22T01:36:12.831Z,100250.72
2022-11-22T01:38:43.315Z,100252.38
2022-11-22T01:41:14.387Z,100255.28
2022-11-22T01:43:44.435Z,100250.94
2022-11-22T01:46:36.099Z,100254.06
2022-11-22T01:49:19.100Z,100260.66
2022-11-22T01:51:54.110Z,100243.47
2022-11-22T01:54:26.921Z,100239.53
2022-11-22T01:57:03.576Z,100244.50
2022-11-22T01:59:35.985Z,100234.75
2022-11-22T02:02:06.714Z,100235.41
2022-11-22T02:04:37.451Z,100239.53
2022-11-22T02:10:06.331Z,100231.84
2022-11-22T02:12:37.817Z,100231.00
2022-11-22T02:15:07.418Z,100238.72
2022-11-22T02:17:37.585Z,100231.22
2022-11-22T02:20:08.517Z,100224.19
2022-11-22T02:23:13.939Z,100217.56
2022-11-22T02:25:43.896Z,100231.66
2022-11-22T02:28:14.481Z,100223.34
2022-11-22T02:30:43.653Z,100220.47
2022-11-22T02:33:13.330Z,100218.34
2022-11-22T02:35:42.339Z,100223.75
2022-11-22T02:38:17.189Z,100221.91
2022-11-22T02:41:06.764Z,100219.44
2022-11-22T02:43:44.809Z,100219.63
2022-11-22T02:46:20.899Z,100231.84
2022-11-22T02:48:50.655Z,100232.91
2022-11-22T02:51:22.082Z,100233.31
2022-11-22T02:53:53.017Z,100238.69
2022-11-22T02:56:20.759Z,100237.22
2022-11-22T02:58:50.191Z,100243.28
2022-11-22T03:01:19.046Z,100245.31
2022-11-22T03:03:47.915Z,100250.31
2022-11-22T03:06:17.065Z,100244.66
2022-11-22T03:08:45.863Z,100252.72
2022-11-22T03:11:16.083Z,100233.59
2022-11-22T03:13:45.954Z,100244.38
2022-11-22T03:16:13.808Z,100248.53
2022-11-22T03:18:43.940Z,100248.53
2022-11-22T03:21:13.980Z,100246.59
2022-11-22T03:23:43.782Z,100260.09
2022-11-22T03:26:12.994Z,100268.06
2022-11-22T03:28:41.097Z,100266.75
2022-11-22T03:31:10.097Z,100257.44
2022-11-22T03:33:38.047Z,100268.00
2022-11-22T03:36:10.378Z,100264.97
2022-11-22T03:38:39.825Z,100269.03
2022-11-22T03:41:09.237Z,100263.59
2022-11-22T03:43:39.788Z,100252.16
2022-11-22T03:46:15.166Z,100253.50
2022-11-22T03:48:43.886Z,100260.94
2022-11-22T03:51:13.567Z,100273.00
2022-11-22T03:53:42.895Z,100264.28
2022-11-22T03:56:12.188Z,100280.13
2022-11-22T03:58:41.787Z,100275.78
2022-11-22T04:01:16.288Z,100268.84
2022-11-22T04:03:46.000Z,100272.31
2022-11-22T04:06:15.092Z,100282.25
2022-11-22T04:08:43.891Z,100290.50
2022-11-22T04:11:13.067Z,100281.13
2022-11-22T04:14:02.723Z,100290.69
2022-11-22T04:16:34.774Z,100304.22
2022-11-22T04:19:03.949Z,100299.72
2022-11-22T04:21:37.036Z,100310.84
2022-11-22T04:24:29.457Z,100313.13
2022-11-22T04:26:59.028Z,100317.72
2022-11-22T04:29:27.434Z,100299.22
2022-11-22T04:32:15.458Z,100303.47
2022-11-22T04:34:45.041Z,100307.28
2022-11-22T04:37:13.102Z,100312.53
2022-11-22T04:39:44.539Z,100310.81
2022-11-22T04:42:31.352Z,100322.41
2022-11-22T04:44:59.637Z,100321.16
2022-11-22T04:47:50.288Z,100319.84
2022-11-22T04:50:39.411Z,100314.00
2022-11-22T04:53:07.873Z,100313.66
2022-11-22T04:55:37.184Z,100317.34
2022-11-22T04:58:06.010Z,100323.78
2022-11-22T05:00:35.615Z,100315.69
2022-11-22T05:03:04.340Z,100311.31
2022-11-22T05:05:39.109Z,100296.31
2022-11-22T05:08:08.771Z,100296.97
2022-11-22T05:10:58.342Z,100292.66
2022-11-22T05:13:47.017Z,100307.88
2022-11-22T05:16:17.251Z,100335.88
2022-11-22T05:19:00.813Z,100349.03
2022-11-22T05:21:30.979Z,100352.31
2022-11-22T05:23:58.898Z,100344.47
2022-11-22T05:26:34.400Z,100344.50
2022-11-22T05:29:09.944Z,100349.34
2022-11-22T05:31:40.937Z,100346.47
2022-11-22T05:34:09.816Z,100349.69
2022-11-22T05:36:39.560Z,100351.19
2022-11-22T05:39:07.837Z,100361.41
2022-11-22T05:41:38.289Z,100358.38
2022-11-22T05:44:07.332Z,100356.91
2022-11-22T05:46:37.905Z,100359.41
2022-11-22T05:49:07.813Z,100364.09
2022-11-22T05:51:39.101Z,100373.78
2022-11-22T05:54:08.153Z,100385.88
2022-11-22T05:56:39.035Z,100377.47
2022-11-22T05:59:08.507Z,100368.13
2022-11-22T06:01:37.323Z,100369.81
2022-11-22T06:04:07.105Z,100371.47
2022-11-22T06:06:52.903Z,100383.53
2022-11-22T06:09:23.251Z,100392.38
2022-11-22T06:14:45.611Z,100386.88
2022-11-22T06:17:14.846Z,100394.88
2022-11-22T06:22:28.142Z,100424.94
2022-11-22T06:24:56.835Z,100424.59
2022-11-22T06:27:26.519Z,100428.72
2022-11-22T06:29:55.591Z,100431.56
2022-11-22T06:32:31.166Z,100411.78
2022-11-22T06:41:12.425Z,100427.75
2022-11-22T06:44:03.190Z,100426.91
2022-11-22T06:49:25.554Z,100407.91
2022-11-22T06:51:58.128Z,100414.34
2022-11-22T06:54:40.213Z,100431.94
2022-11-22T06:57:08.971Z,100437.13
2022-11-22T06:59:38.216Z,100450.09
2022-11-22T07:02:32.098Z,100444.03
2022-11-22T07:05:23.973Z,100435.25
2022-11-22T07:07:47.910Z,100449.47
2022-11-22T07:10:17.722Z,100451.03
2022-11-22T07:12:48.494Z,100447.69
2022-11-22T07:15:18.037Z,100447.91
2022-11-22T07:17:47.307Z,100444.91
2022-11-22T07:20:16.940Z,100442.53
2022-11-22T07:22:48.032Z,100445.34
2022-11-22T07:25:17.504Z,100438.69
2022-11-22T07:27:47.522Z,100424.56
2022-11-22T07:30:16.892Z,100419.44
2022-11-22T07:32:50.148Z,100422.06
2022-11-22T07:35:20.771Z,100426.47
2022-11-22T07:40:32.980Z,100437.84
2022-11-22T07:43:02.125Z,100440.91
2022-11-22T07:45:31.858Z,100444.63
2022-11-22T07:48:05.165Z,100459.34
2022-11-22T07:50:34.372Z,100455.94
2022-11-22T07:53:07.450Z,100446.72
2022-11-22T07:55:37.297Z,100455.84
2022-11-22T07:58:07.389Z,100429.72
2022-11-22T08:00:37.458Z,100441.63
2022-11-22T08:03:09.773Z,100454.56
2022-11-22T08:05:42.473Z,100469.31
2022-11-22T08:08:12.000Z,100467.59
2022-11-22T08:10:42.601Z,100473.47
2022-11-22T08:13:14.146Z,100479.94
2022-11-22T08:15:49.610Z,100471.41
2022-11-22T08:18:18.891Z,100465.13
2022-11-22T08:21:15.447Z,100463.59
2022-11-22T08:23:44.996Z,100460.72
2022-11-22T08:26:16.809Z,100457.09
2022-11-22T08:28:46.899Z,100466.19
2022-11-22T08:31:21.501Z,100468.56
2022-11-22T08:33:53.868Z,100467.34
2022-11-22T08:36:23.547Z,100465.75
2022-11-22T08:38:56.930Z,100456.41
2022-11-22T08:41:26.722Z,100449.66
2022-11-22T08:43:56.029Z,100460.03
2022-11-22T08:46:34.754Z,100457.66
2022-11-22T08:49:06.754Z,100453.28
2022-11-22T08:51:37.825Z,100452.88
2022-11-22T08:54:07.062Z,100445.78
2022-11-22T08:56:37.367Z,100439.69
2022-11-22T08:59:08.622Z,100463.84
2022-11-22T09:01:39.213Z,100473.28
2022-11-22T09:04:22.368Z,100464.69
2022-11-22T09:09:46.526Z,100455.53
2022-11-22T09:12:15.365Z,100463.50
2022-11-22T09:14:46.204Z,100455.84
2022-11-22T09:17:18.306Z,100456.84
2022-11-22T09:19:49.270Z,100454.63
2022-11-22T09:22:20.884Z,100443.94
2022-11-22T09:24:55.281Z,100439.84
2022-11-22T09:27:24.265Z,100432.53
2022-11-22T09:29:53.042Z,100427.19
2022-11-22T09:32:28.204Z,100440.53
2022-11-22T09:35:01.558Z,100434.28
2022-11-22T09:37:35.181Z,100449.38
2022-11-22T09:40:05.628Z,100432.72
2022-11-22T09:42:54.826Z,100419.88
2022-11-22T09:46:09.100Z,100410.47
2022-11-22T09:48:41.270Z,100405.72
2022-11-22T09:51:18.270Z,100412.03
2022-11-22T09:54:10.667Z,100407.09
2022-11-22T09:56:42.061Z,100402.28
2022-11-22T09:59:31.837Z,100407.88
2022-11-22T10:02:31.407Z,100396.50
2022-11-22T10:05:27.525Z,100417.34
2022-11-22T10:08:34.445Z,100426.97
2022-11-22T10:11:36.884Z,100430.88
2022-11-22T10:14:21.558Z,100427.22
2022-11-22T10:17:10.374Z,100423.59
2022-11-22T10:19:47.639Z,100419.88
2022-11-22T10:22:16.111Z,100426.66
2022-11-22T10:24:45.703Z,100436.19
2022-11-22T10:27:15.702Z,100419.06
2022-11-22T10:30:00.499Z,100430.72
2022-11-22T10:32:47.579Z,100430.72
2022-11-22T10:35:54.720Z,100432.41
2022-11-22T10:38:41.664Z,100437.03
2022-11-22T10:41:54.672Z,100436.41
2022-11-22T10:44:39.178Z,100432.66
2022-11-22T10:47:41.483Z,100426.13
2022-11-22T10:50:30.646Z,100430.13
2022-11-22T10:56:38.712Z,100416.81
2022-11-22T10:59:48.191Z,100414.53
2022-11-22T11:03:07.329Z,100406.13
2022-11-22T11:06:22.703Z,100407.41
2022-11-22T11:10:10.205Z,100409.09
2022-11-22T11:12:46.199Z,100409.41
2022-11-22T11:15:21.887Z,100412.13
2022-11-22T11:18:06.729Z,100412.31
2022-11-22T11:20:40.001Z,100405.00
2022-11-22T11:23:16.347Z,100407.09
2022-11-22T11:25:49.564Z,100403.22
2022-11-22T11:28:30.715Z,100407.94
2022-11-22T11:31:09.985Z,100398.00
2022-11-22T11:33:42.328Z,100395.03
2022-11-22T11:36:24.392Z,100410.59
2022-11-22T11:41:58.614Z,100424.19
2022-11-22T11:44:38.965Z,100418.44
2022-11-22T11:47:07.403Z,100401.38
2022-11-22T11:49:37.222Z,100407.50
2022-11-22T11:52:14.434Z,100418.84
2022-11-22T11:54:52.207Z,100434.78
2022-11-22T11:57:32.566Z,100435.72
2022-11-22T12:00:20.416Z,100442.28
2022-11-22T12:03:06.395Z,100429.03
2022-11-22T12:05:36.431Z,100415.88
2022-11-22T12:08:29.742Z,100423.34
2022-11-22T12:11:31.191Z,100437.56
2022-11-22T12:14:22.230Z,100441.91
2022-11-22T12:17:02.166Z,100420.88
2022-11-22T12:20:13.270Z,100431.31
2022-11-22T12:22:50.069Z,100441.78
2022-11-22T12:25:56.060Z,100434.59
2022-11-22T12:28:29.429Z,100448.09
2022-11-22T12:38:15.097Z,100437.53
2022-11-22T12:40:51.418Z,100424.81
2022-11-22T12:43:55.440Z,100431.25
2022-11-22T12:46:31.522Z,100450.69
2022-11-22T12:49:20.926Z,100441.19
2022-11-22T12:52:42.853Z,100443.69
2022-11-22T12:55:35.565Z,100442.91
2022-11-22T12:58:22.166Z,100460.16
2022-11-22T13:01:16.866Z,100446.13
2022-11-22T13:03:53.315Z,100439.63
2022-11-22T13:06:52.182Z,100439.66
2022-11-22T13:09:38.498Z,100455.09
2022-11-22T13:12:32.529Z,100462.88
2022-11-22T13:15:05.515Z,100479.81
2022-11-22T13:17:39.178Z,100489.72
2022-11-22T13:20:31.782Z,100493.59
2022-11-22T13:23:11.267Z,100495.97
2022-11-22T13:26:15.058Z,100495.66
2022-11-22T13:28:52.045Z,100487.88
2022-11-22T13:31:34.411Z,100487.47
2022-11-22T13:37:25.952Z,100500.94
2022-11-22T13:39:56.536Z,100495.63
2022-11-22T13:42:29.136Z,100494.53
2022-11-22T13:45:02.116Z,100497.28
2022-11-22T13:47:51.395Z,100504.91
2022-11-22T13:53:59.946Z,100503.31
2022-11-22T14:13:08.064Z,100510.00
2022-11-22T14:19:52.213Z,100518.94
2022-11-22T14:52:15.967Z,100539.69
2022-11-22T15:09:18.784Z,100546.47
2022-11-22T16:51:06.614Z,100649.94
2022-11-22T17:05:42.180Z,100660.75
2022-11-22T17:08:28.186Z,100661.34
2022-11-22T17:11:27.302Z,100673.03
2022-11-22T17:14:02.869Z,100666.03
2022-11-22T17:16:37.101Z,100672.59
2022-11-22T20:11:42.972Z,100833.81
2022-11-22T20:47:39.220Z,100876.34
2022-11-22T22:23:34.163Z,100961.66
2022-11-22T22:26:26.912Z,100970.09
2022-11-22T22:58:26.497Z,100991.44
2022-11-22T23:00:57.003Z,100987.94
2022-11-22T23:03:37.298Z,100987.47
2022-11-22T23:06:18.728Z,100980.09
2022-11-22T23:14:42.402Z,100983.59
2022-11-22T23:17:23.971Z,100979.06
2022-11-22T23:19:55.995Z,100983.31
2022-11-22T23:22:43.632Z,100989.75
2022-11-22T23:34:19.477Z,101008.16
2022-11-22T23:39:49.338Z,101005.28
2022-11-22T23:42:21.690Z,101013.03
2022-11-22T23:44:52.384Z,101019.22
2022-11-22T23:47:30.477Z,101027.47
2022-11-22T23:50:00.456Z,101032.72
